Time;durP1;ratioP1;P1;durP2;ratioP2;P2;SDS_P1;SDS_P2;PMS_P1;PMS_P2;Temp;Humidity;BMP_temperature;BMP_pressure;BME280_temperature;BME280_humidity;BME280_pressure;Samples;Min_cycle;Max_cycle;Signal;HPM_P1;HPM_P2
2022/07/24 00:00:08;;;;;;;5.60;2.47;;;17.60;1.00;;;;;;6359572;22;20416;-81
2022/07/24 00:02:46;;;;;;;4.87;2.10;;;17.60;1.00;;;;;;6360035;22;20385;-76
2022/07/24 00:05:13;;;;;;;4.97;2.33;;;17.60;1.00;;;;;;6358546;22;20432;-82
2022/07/24 00:07:43;;;;;;;5.67;3.43;;;17.60;1.00;;;;;;6354515;22;20375;-78
2022/07/24 00:10:11;;;;;;;5.53;3.00;;;17.50;1.00;;;;;;6352798;22;21167;-76
2022/07/24 00:12:43;;;;;;;6.43;3.10;;;17.50;1.00;;;;;;6354726;22;20413;-77
2022/07/24 00:15:12;;;;;;;4.80;2.30;;;17.50;1.00;;;;;;6354355;22;20417;-76
2022/07/24 00:17:43;;;;;;;5.37;2.43;;;17.50;1.00;;;;;;6355137;22;20462;-79
2022/07/24 00:20:11;;;;;;;5.40;2.33;;;17.50;1.00;;;;;;6340156;22;20411;-79
2022/07/24 00:22:52;;;;;;;5.43;2.47;;;17.50;1.00;;;;;;6355151;22;20432;-78
2022/07/24 00:25:23;;;;;;;4.70;2.53;;;17.40;1.00;;;;;;6358216;22;20397;-80
2022/07/24 00:27:50;;;;;;;7.87;2.93;;;17.40;1.00;;;;;;6356540;22;20416;-79
2022/07/24 00:30:25;;;;;;;4.83;2.37;;;17.40;1.00;;;;;;6351413;22;20417;-80
2022/07/24 00:32:57;;;;;;;4.80;2.17;;;17.40;1.00;;;;;;6363087;22;20413;-83
2022/07/24 00:35:24;;;;;;;5.33;2.90;;;17.40;1.00;;;;;;6344558;22;20456;-82
2022/07/24 00:38:02;;;;;;;7.70;3.00;;;17.40;1.00;;;;;;6364694;22;20909;-83
2022/07/24 00:40:33;;;;;;;5.40;2.50;;;17.40;1.00;;;;;;6363905;22;20408;-82
2022/07/24 00:43:05;;;;;;;5.67;2.30;;;17.40;1.00;;;;;;6356635;22;20492;-80
2022/07/24 00:48:24;;;;;;;6.67;2.53;;;17.30;1.00;;;;;;6313813;22;20374;-80
2022/07/24 00:50:51;;;;;;;6.00;1.93;;;17.30;1.00;;;;;;6356706;22;20426;-78
2022/07/24 00:53:22;;;;;;;5.77;2.90;;;17.20;1.00;;;;;;6356020;22;20401;-77
2022/07/24 00:55:49;;;;;;;5.77;2.70;;;17.20;1.00;;;;;;6355393;22;20881;-79
2022/07/24 00:58:16;;;;;;;5.00;2.13;;;17.20;1.00;;;;;;6356483;22;20366;-82
2022/07/24 01:00:52;;;;;;;4.20;2.00;;;17.20;1.00;;;;;;6359174;22;20449;-77
2022/07/24 01:03:25;;;;;;;5.10;1.93;;;17.20;1.00;;;;;;6358015;22;20898;-83
2022/07/24 01:05:54;;;;;;;4.63;2.03;;;17.10;1.00;;;;;;6330877;22;20397;-79
2022/07/24 01:08:24;;;;;;;5.80;2.63;;;17.10;1.00;;;;;;6340541;22;20401;-78
2022/07/24 01:10:52;;;;;;;7.43;2.10;;;17.10;1.00;;;;;;6359983;22;20947;-79
2022/07/24 01:13:23;;;;;;;4.70;2.00;;;17.10;1.00;;;;;;6354789;22;20413;-78
2022/07/24 01:15:52;;;;;;;5.17;2.40;;;17.10;1.00;;;;;;6343465;22;20424;-82
2022/07/24 01:18:24;;;;;;;4.80;2.30;;;17.00;1.00;;;;;;6359110;22;20420;-80
2022/07/24 01:20:55;;;;;;;6.50;3.37;;;17.00;1.00;;;;;;6360791;22;20447;-79
2022/07/24 01:23:24;;;;;;;5.93;2.00;;;17.00;1.00;;;;;;6356441;22;20456;-78
2022/07/24 01:25:52;;;;;;;4.53;1.97;;;17.00;1.00;;;;;;6357427;22;20409;-79
2022/07/24 01:28:24;;;;;;;4.97;2.00;;;16.90;1.00;;;;;;6356817;22;20445;-80
2022/07/24 01:30:52;;;;;;;4.20;2.00;;;16.90;1.00;;;;;;6356631;22;20921;-77
2022/07/24 01:33:28;;;;;;;4.50;2.20;;;16.90;1.00;;;;;;6352174;22;20393;-78
2022/07/24 01:35:57;;;;;;;7.43;2.23;;;16.90;1.00;;;;;;6355841;22;20470;-80
2022/07/24 01:38:26;;;;;;;4.70;2.07;;;16.90;1.00;;;;;;6329965;22;20487;-81
2022/07/24 01:40:55;;;;;;;4.37;1.97;;;16.90;1.00;;;;;;6358723;22;20421;-82
2022/07/24 01:43:27;;;;;;;4.87;1.90;;;16.80;1.00;;;;;;6358756;22;20394;-78
2022/07/24 01:45:54;;;;;;;5.87;2.10;;;16.80;1.00;;;;;;6352631;22;20435;-79
2022/07/24 01:48:24;;;;;;;4.10;1.90;;;16.80;1.00;;;;;;6362115;22;20409;-77
2022/07/24 01:50:51;;;;;;;4.93;2.23;;;16.80;1.00;;;;;;6358555;22;20435;-82
2022/07/24 01:53:24;;;;;;;5.27;2.17;;;16.80;1.00;;;;;;6360712;22;20436;-78
2022/07/24 01:55:53;;;;;;;5.03;2.10;;;16.80;1.00;;;;;;6356328;22;20444;-77
2022/07/24 01:58:24;;;;;;;5.83;1.97;;;16.80;1.00;;;;;;6359315;22;20390;-82
2022/07/24 02:00:52;;;;;;;4.80;2.10;;;16.70;1.00;;;;;;6355108;22;20909;-80
2022/07/24 02:03:24;;;;;;;4.80;2.40;;;16.70;1.00;;;;;;6358370;22;20382;-82
2022/07/24 02:05:51;;;;;;;4.60;2.50;;;16.70;1.00;;;;;;6357276;22;20422;-82
2022/07/24 02:08:37;;;;;;;4.77;2.47;;;16.70;1.00;;;;;;6361639;22;20442;-83
2022/07/24 02:11:06;;;;;;;5.33;2.37;;;16.70;1.00;;;;;;6355126;22;20397;-78
2022/07/24 02:13:34;;;;;;;5.77;2.20;;;16.70;1.00;;;;;;6359868;22;20396;-82
2022/07/24 02:16:05;;;;;;;4.70;2.03;;;16.70;1.00;;;;;;6357615;22;20443;-81
2022/07/24 02:18:32;;;;;;;4.70;2.60;;;16.70;1.00;;;;;;6357351;22;20851;-82
2022/07/24 02:21:04;;;;;;;4.73;2.37;;;16.60;1.00;;;;;;6355459;22;20597;-77
2022/07/24 02:23:31;;;;;;;6.80;2.90;;;16.60;1.00;;;;;;6355123;22;20448;-76
2022/07/24 02:26:04;;;;;;;5.27;2.33;;;16.60;1.00;;;;;;6355080;22;20417;-78
2022/07/24 02:28:31;;;;;;;4.20;1.80;;;16.50;1.00;;;;;;6359552;22;20448;-78
2022/07/24 02:31:02;;;;;;;5.47;2.47;;;16.50;1.00;;;;;;6358329;22;20378;-79
2022/07/24 02:33:29;;;;;;;5.70;1.70;;;16.50;1.00;;;;;;6358830;22;20387;-83
2022/07/24 02:36:00;;;;;;;6.17;2.17;;;16.50;1.00;;;;;;6351911;22;20902;-79
2022/07/24 02:38:29;;;;;;;22.03;19.80;;;16.50;1.00;;;;;;6357260;22;20425;-81
2022/07/24 02:40:56;;;;;;;5.30;2.20;;;16.50;1.00;;;;;;6357371;22;20421;-79
2022/07/24 02:43:25;;;;;;;6.80;3.20;;;16.50;1.00;;;;;;6355479;22;20396;-76
2022/07/24 02:45:52;;;;;;;5.20;2.60;;;16.40;1.00;;;;;;6356326;22;20414;-80
2022/07/24 02:48:29;;;;;;;4.80;2.10;;;16.40;1.00;;;;;;6356594;22;20385;-82
2022/07/24 02:50:56;;;;;;;4.17;1.80;;;16.40;1.00;;;;;;6354555;22;20964;-77
2022/07/24 02:53:24;;;;;;;4.83;2.30;;;16.40;1.00;;;;;;6356670;22;20393;-75
2022/07/24 02:55:52;;;;;;;4.47;1.90;;;16.30;1.00;;;;;;6327567;22;20897;-76
2022/07/24 02:58:27;;;;;;;6.57;2.37;;;16.30;1.00;;;;;;6353791;22;20389;-77
2022/07/24 03:00:54;;;;;;;5.00;2.50;;;16.30;1.00;;;;;;6354039;22;21044;-79
2022/07/24 03:03:25;;;;;;;5.10;2.77;;;16.20;1.00;;;;;;6356116;22;20382;-79
2022/07/24 03:05:52;;;;;;;6.47;2.27;;;16.20;1.00;;;;;;6360048;22;20459;-83
2022/07/24 03:08:26;;;;;;;6.70;3.73;;;16.20;1.00;;;;;;6355308;22;20373;-79
2022/07/24 03:10:55;;;;;;;7.47;2.07;;;16.20;1.00;;;;;;6353810;22;20432;-79
2022/07/24 03:13:26;;;;;;;4.30;1.90;;;16.20;1.00;;;;;;6353838;22;20429;-80
2022/07/24 03:16:02;;;;;;;4.17;2.07;;;16.10;1.00;;;;;;6354476;22;20416;-77
2022/07/24 03:18:29;;;;;;;4.43;1.80;;;16.10;1.00;;;;;;6354446;22;20429;-79
2022/07/24 03:20:56;;;;;;;6.30;2.40;;;16.10;1.00;;;;;;6356365;22;20472;-79
2022/07/24 03:23:24;;;;;;;5.23;1.80;;;16.10;1.00;;;;;;6357318;22;20382;-79
2022/07/24 03:25:52;;;;;;;4.30;1.80;;;16.10;1.00;;;;;;6356123;22;20389;-79
2022/07/24 03:28:27;;;;;;;4.83;2.30;;;16.10;1.00;;;;;;6355693;22;20417;-82
2022/07/24 03:30:54;;;;;;;4.70;2.10;;;16.00;1.00;;;;;;6341011;22;20397;-80
2022/07/24 03:33:25;;;;;;;5.20;2.30;;;16.00;1.00;;;;;;6357277;22;20397;-82
2022/07/24 03:35:54;;;;;;;4.83;2.43;;;16.00;1.00;;;;;;6355600;22;20410;-79
2022/07/24 03:38:26;;;;;;;6.50;2.57;;;16.00;1.00;;;;;;6353708;22;20440;-77
2022/07/24 03:40:53;;;;;;;6.10;2.10;;;16.00;1.00;;;;;;6357008;22;20424;-78
2022/07/24 03:43:24;;;;;;;5.87;2.40;;;16.00;1.00;;;;;;6355311;22;20386;-82
2022/07/24 03:45:51;;;;;;;9.07;3.20;;;16.00;1.00;;;;;;6355135;22;20508;-82
2022/07/24 03:48:25;;;;;;;5.67;2.77;;;16.00;1.00;;;;;;6354369;22;20418;-79
2022/07/24 03:50:56;;;;;;;5.37;2.33;;;16.00;1.00;;;;;;6353041;22;20467;-78
2022/07/24 03:53:24;;;;;;;4.47;2.30;;;15.90;1.00;;;;;;6326838;22;21271;-78
2022/07/24 03:55:51;;;;;;;5.47;2.80;;;15.90;1.00;;;;;;6354210;22;20404;-80
2022/07/24 03:58:19;;;;;;;8.53;2.87;;;16.00;1.00;;;;;;6353207;22;20494;-77
2022/07/24 04:00:47;;;;;;;4.70;1.93;;;16.00;1.00;;;;;;6355805;22;20460;-76
2022/07/24 04:03:14;;;;;;;6.13;2.00;;;16.00;1.00;;;;;;6352454;22;20459;-79
2022/07/24 04:05:44;;;;;;;4.97;2.57;;;16.00;1.00;;;;;;6355974;22;20452;-82
2022/07/24 04:08:12;;;;;;;4.70;2.30;;;16.10;1.00;;;;;;6341132;22;20441;-80
2022/07/24 04:10:48;;;;;;;4.87;2.47;;;16.10;1.00;;;;;;6355794;22;20396;-82
2022/07/24 04:13:14;;;;;;;5.43;2.40;;;16.10;1.00;;;;;;6355151;22;20956;-80
2022/07/24 04:15:41;;;;;;;4.40;2.27;;;16.10;1.00;;;;;;6355986;22;20508;-79
2022/07/24 04:18:08;;;;;;;4.97;1.90;;;16.10;1.00;;;;;;6347092;22;20443;-78
2022/07/24 04:20:36;;;;;;;6.73;2.57;;;16.10;1.00;;;;;;6355490;22;20401;-80
2022/07/24 04:23:04;;;;;;;5.13;2.30;;;16.10;1.00;;;;;;6355153;22;20370;-79
2022/07/24 04:25:35;;;;;;;5.20;2.43;;;16.10;1.00;;;;;;6350422;22;20409;-79
2022/07/24 04:28:09;;;;;;;4.70;2.27;;;16.20;1.00;;;;;;6347763;22;20390;-79
2022/07/24 04:30:36;;;;;;;4.60;1.90;;;16.20;1.00;;;;;;6347122;22;20863;-79
2022/07/24 04:33:03;;;;;;;5.00;2.00;;;16.20;1.00;;;;;;6348833;22;21126;-79
2022/07/24 04:35:34;;;;;;;5.83;2.00;;;16.20;1.00;;;;;;6348694;22;20445;-82
2022/07/24 04:38:01;;;;;;;8.40;2.20;;;16.20;1.00;;;;;;6357692;22;20415;-77
2022/07/24 04:40:29;;;;;;;5.60;2.30;;;16.20;1.00;;;;;;6353235;22;20457;-77
2022/07/24 04:43:00;;;;;;;5.93;2.30;;;16.30;1.00;;;;;;6345219;22;20413;-80
2022/07/24 04:45:27;;;;;;;6.40;2.03;;;16.30;1.00;;;;;;6350083;22;20465;-79
2022/07/24 04:47:54;;;;;;;4.67;2.30;;;16.40;1.00;;;;;;6349790;22;20747;-78
2022/07/24 04:50:21;;;;;;;5.77;2.80;;;16.40;1.00;;;;;;6348609;22;20430;-80
2022/07/24 04:52:48;;;;;;;5.23;1.90;;;16.50;1.00;;;;;;6350536;22;21189;-78
2022/07/24 04:55:16;;;;;;;5.70;2.60;;;16.50;1.00;;;;;;6350561;22;20532;-78
2022/07/24 04:57:44;;;;;;;4.30;2.00;;;16.50;1.00;;;;;;6349470;22;20870;-79
2022/07/24 05:00:14;;;;;;;4.00;1.80;;;16.60;1.00;;;;;;6337396;22;20409;-78
2022/07/24 05:02:41;;;;;;;5.00;1.97;;;16.60;1.00;;;;;;6352618;22;20491;-78
2022/07/24 05:05:14;;;;;;;4.50;1.90;;;16.60;1.00;;;;;;6355388;22;20488;-78
2022/07/24 05:07:41;;;;;;;5.37;2.37;;;16.70;1.00;;;;;;6356105;22;20425;-79
2022/07/24 05:10:14;;;;;;;6.43;2.47;;;16.70;1.00;;;;;;6353906;22;20398;-76
2022/07/24 05:12:42;;;;;;;4.33;2.00;;;16.70;1.00;;;;;;6356248;22;21193;-76
2022/07/24 05:15:15;;;;;;;5.60;2.10;;;16.80;1.00;;;;;;6354370;22;20418;-76
2022/07/24 05:17:42;;;;;;;5.10;1.90;;;16.80;1.00;;;;;;6358387;22;20413;-82
2022/07/24 05:20:14;;;;;;;5.50;1.90;;;16.90;1.00;;;;;;6358493;22;20427;-81
2022/07/24 05:22:41;;;;;;;5.57;1.80;;;16.90;1.00;;;;;;6354074;22;20416;-82
2022/07/24 05:25:14;;;;;;;4.93;1.90;;;17.00;1.00;;;;;;6355824;22;21231;-78
2022/07/24 05:27:51;;;;;;;5.70;1.97;;;17.10;1.00;;;;;;6355570;22;20427;-78
2022/07/24 05:30:24;;;;;;;4.50;1.63;;;17.10;1.00;;;;;;6354597;22;20445;-79
2022/07/24 05:32:52;;;;;;;7.00;2.00;;;17.10;1.00;;;;;;6355455;22;20409;-80
2022/07/24 05:35:24;;;;;;;3.93;1.47;;;17.20;1.00;;;;;;6355057;22;20917;-82
2022/07/24 05:37:57;;;;;;;4.57;1.40;;;17.30;1.00;;;;;;6332261;22;20402;-79
2022/07/24 05:40:25;;;;;;;4.77;1.63;;;17.30;1.00;;;;;;6339875;22;20405;-80
2022/07/24 05:42:53;;;;;;;4.37;1.40;;;17.40;1.00;;;;;;6354697;22;20381;-77
2022/07/24 05:45:26;;;;;;;5.90;1.40;;;17.40;1.00;;;;;;6337531;22;20514;-76
2022/07/24 05:47:53;;;;;;;9.80;1.90;;;17.50;1.00;;;;;;6342496;22;20429;-79
2022/07/24 05:50:28;;;;;;;3.70;1.30;;;17.50;1.00;;;;;;6357654;22;20453;-81
2022/07/24 05:52:55;;;;;;;4.30;2.00;;;17.50;1.00;;;;;;6320058;22;20385;-81
2022/07/24 05:55:22;;;;;;;5.20;1.40;;;17.60;1.00;;;;;;6339229;22;20416;-79
2022/07/24 05:57:55;;;;;;;6.37;2.10;;;17.60;1.00;;;;;;6353512;22;20452;-77
2022/07/24 06:00:24;;;;;;;4.93;2.00;;;17.70;1.00;;;;;;6349040;22;20504;-76
2022/07/24 06:02:55;;;;;;;6.23;2.20;;;17.80;1.00;;;;;;6355984;22;20401;-82
2022/07/24 06:05:22;;;;;;;4.77;1.37;;;17.90;1.00;;;;;;6356020;22;20508;-76
2022/07/24 06:07:50;;;;;;;3.83;1.53;;;18.00;1.00;;;;;;6355416;22;20477;-77
2022/07/24 06:10:20;;;;;;;4.23;1.73;;;18.10;1.00;;;;;;6355129;22;20435;-82
2022/07/24 06:12:47;;;;;;;4.80;1.90;;;18.20;1.00;;;;;;6355285;22;20889;-81
2022/07/24 06:15:15;;;;;;;4.00;1.70;;;18.20;1.00;;;;;;6354397;22;20397;-79
2022/07/24 06:17:44;;;;;;;4.77;1.90;;;18.20;1.00;;;;;;6355134;22;20489;-75
2022/07/24 06:20:16;;;;;;;4.90;2.10;;;18.30;1.00;;;;;;6353172;22;20428;-76
2022/07/24 06:22:44;;;;;;;8.27;2.10;;;18.30;1.00;;;;;;6354634;22;20394;-79
2022/07/24 06:25:16;;;;;;;4.87;1.90;;;18.30;1.00;;;;;;6351110;22;20461;-78
2022/07/24 06:27:46;;;;;;;4.63;1.90;;;18.40;1.00;;;;;;6350211;22;20467;-76
2022/07/24 06:30:15;;;;;;;3.93;1.90;;;18.50;1.00;;;;;;6352563;22;20421;-81
2022/07/24 06:32:44;;;;;;;6.50;3.70;;;18.60;1.00;;;;;;6342508;22;20416;-82
2022/07/24 06:35:16;;;;;;;6.43;1.90;;;18.60;1.00;;;;;;6358439;22;20404;-82
2022/07/24 06:37:44;;;;;;;3.97;1.63;;;18.60;1.00;;;;;;6354124;22;20422;-80
2022/07/24 06:40:15;;;;;;;5.30;1.73;;;18.70;1.00;;;;;;6344389;22;21210;-79
2022/07/24 06:42:42;;;;;;;5.10;2.13;;;18.70;1.00;;;;;;6351143;22;20417;-77
2022/07/24 06:45:17;;;;;;;4.67;2.20;;;18.70;1.00;;;;;;6353127;22;20620;-80
2022/07/24 06:47:46;;;;;;;5.33;1.53;;;18.80;1.00;;;;;;6349773;22;20451;-77
2022/07/24 06:50:14;;;;;;;6.50;2.20;;;18.80;1.00;;;;;;6355180;22;20932;-79
2022/07/24 06:52:45;;;;;;;4.20;1.80;;;18.90;1.00;;;;;;6354992;22;20390;-77
2022/07/24 06:55:14;;;;;;;4.00;1.50;;;18.90;1.00;;;;;;6335864;22;20925;-76
2022/07/24 06:57:41;;;;;;;5.30;1.90;;;19.00;1.00;;;;;;6323906;22;20576;-79
2022/07/24 07:00:14;;;;;;;6.27;2.03;;;19.00;1.00;;;;;;6348375;22;20887;-79
2022/07/24 07:02:43;;;;;;;5.30;2.10;;;19.10;1.00;;;;;;6358499;22;20413;-83
2022/07/24 07:05:23;;;;;;;4.30;1.80;;;19.10;1.00;;;;;;6347239;22;20408;-81
2022/07/24 07:07:52;;;;;;;4.47;1.70;;;19.20;1.00;;;;;;6345860;22;20421;-82
2022/07/24 07:10:23;;;;;;;5.70;1.80;;;19.10;1.00;;;;;;6343289;22;20423;-83
2022/07/24 07:12:52;;;;;;;5.50;2.10;;;19.20;1.00;;;;;;6358740;22;20932;-79
2022/07/24 07:15:24;;;;;;;5.20;1.57;;;19.30;1.00;;;;;;6341303;22;20773;-78
2022/07/24 07:17:54;;;;;;;4.13;1.60;;;19.40;1.00;;;;;;6355203;22;20424;-79
2022/07/24 07:20:27;;;;;;;4.33;1.30;;;19.40;1.00;;;;;;6353306;22;20400;-82
2022/07/24 07:22:53;;;;;;;6.13;1.90;;;19.40;1.00;;;;;;6354192;22;21050;-78
2022/07/24 07:25:20;;;;;;;4.27;1.63;;;19.40;1.00;;;;;;6339891;22;20452;-80
2022/07/24 07:27:47;;;;;;;5.60;1.83;;;19.50;1.00;;;;;;6350390;22;20432;-77
2022/07/24 07:30:15;;;;;;;6.20;1.83;;;19.50;1.00;;;;;;6344997;22;20445;-77
2022/07/24 07:32:44;;;;;;;6.23;1.73;;;19.60;1.00;;;;;;6349502;22;20386;-79
2022/07/24 07:35:15;;;;;;;5.87;1.60;;;19.60;1.00;;;;;;6357966;22;20424;-79
2022/07/24 07:37:54;;;;;;;5.10;1.97;;;19.70;1.00;;;;;;6363126;22;20404;-80
2022/07/24 07:40:25;;;;;;;7.40;1.90;;;19.70;1.00;;;;;;6356942;22;20440;-79
2022/07/24 07:42:52;;;;;;;4.73;1.40;;;19.80;1.00;;;;;;6358694;22;20488;-78
2022/07/24 07:45:23;;;;;;;6.53;1.70;;;19.90;1.00;;;;;;6361362;22;20409;-82
2022/07/24 07:47:50;;;;;;;5.90;1.63;;;20.00;1.00;;;;;;6359339;22;20417;-79
2022/07/24 07:50:17;;;;;;;5.27;1.63;;;20.10;1.00;;;;;;6358708;22;20413;-81
2022/07/24 07:52:47;;;;;;;7.33;1.50;;;20.20;1.00;;;;;;6361380;22;20401;-76
2022/07/24 07:55:23;;;;;;;4.90;1.60;;;20.30;1.00;;;;;;6357945;22;20397;-76
2022/07/24 07:57:50;;;;;;;4.40;1.10;;;20.40;1.00;;;;;;6359058;22;20417;-79
2022/07/24 08:00:19;;;;;;;5.57;1.70;;;20.40;1.00;;;;;;6355559;22;20421;-79
2022/07/24 08:02:47;;;;;;;6.00;1.83;;;20.50;1.00;;;;;;6358121;22;20877;-80
2022/07/24 08:05:16;;;;;;;5.23;1.50;;;20.60;1.00;;;;;;6351960;22;20389;-82
2022/07/24 08:07:47;;;;;;;5.00;1.43;;;20.80;1.00;;;;;;6346398;22;20428;-82
2022/07/24 08:10:17;;;;;;;5.57;1.57;;;20.90;1.00;;;;;;6356427;22;20381;-81
2022/07/24 08:12:46;;;;;;;4.70;1.70;;;21.10;1.00;;;;;;6330785;22;20479;-82
2022/07/24 08:15:16;;;;;;;4.50;1.40;;;21.20;1.00;;;;;;6314800;22;20405;-80
2022/07/24 08:17:44;;;;;;;6.00;1.97;;;21.40;1.00;;;;;;6351253;22;20437;-82
2022/07/24 08:20:15;;;;;;;4.73;1.67;;;21.50;1.00;;;;;;6330411;22;20408;-81
2022/07/24 08:22:55;;;;;;;5.00;1.47;;;21.70;1.00;;;;;;6322280;22;20426;-79
2022/07/24 08:25:25;;;;;;;5.00;1.23;;;21.80;1.00;;;;;;6326094;22;20391;-82
2022/07/24 08:27:55;;;;;;;6.60;1.93;;;22.00;1.00;;;;;;6331479;22;20440;-82
2022/07/24 08:30:26;;;;;;;5.40;1.43;;;22.10;1.00;;;;;;6326804;22;20492;-80
2022/07/24 08:32:54;;;;;;;4.97;1.73;;;22.20;1.00;;;;;;6330043;22;20406;-81
2022/07/24 08:35:25;;;;;;;5.30;1.40;;;22.20;1.00;;;;;;6324696;22;20409;-79
2022/07/24 08:37:53;;;;;;;5.43;1.43;;;22.20;1.00;;;;;;6326383;22;20446;-80
2022/07/24 08:40:25;;;;;;;6.10;1.50;;;22.20;1.00;;;;;;6323393;22;20402;-79
2022/07/24 08:42:52;;;;;;;4.83;1.43;;;22.30;1.00;;;;;;6325923;22;20397;-81
2022/07/24 08:45:21;;;;;;;4.63;1.07;;;22.50;1.00;;;;;;6325248;22;20418;-79
2022/07/24 08:47:52;;;;;;;4.60;1.23;;;22.50;1.00;;;;;;6329750;22;20418;-76
2022/07/24 08:50:26;;;;;;;4.80;1.40;;;22.50;1.00;;;;;;6310664;22;20426;-79
2022/07/24 08:53:03;;;;;;;5.97;1.40;;;22.60;1.00;;;;;;6324991;22;20479;-78
2022/07/24 08:55:31;;;;;;;5.67;1.40;;;22.70;1.00;;;;;;6331706;22;20456;-82
2022/07/24 08:58:03;;;;;;;6.30;1.47;;;22.80;1.00;;;;;;6326722;22;20444;-79
2022/07/24 09:00:32;;;;;;;4.77;1.50;;;22.90;1.00;;;;;;6325027;22;21166;-75
2022/07/24 09:03:03;;;;;;;5.00;1.10;;;23.00;1.00;;;;;;6323393;22;20511;-78
2022/07/24 09:05:32;;;;;;;5.13;1.60;;;23.00;1.00;;;;;;6336322;22;20521;-78
2022/07/24 09:08:12;;;;;;;5.00;1.60;;;23.10;1.00;;;;;;6333085;22;20385;-82
2022/07/24 09:10:43;;;;;;;5.40;2.00;;;23.20;1.00;;;;;;6326360;22;20484;-80
2022/07/24 09:13:15;;;;;;;5.47;1.77;;;23.30;1.00;;;;;;6357037;22;20381;-80
2022/07/24 09:15:47;;;;;;;5.20;1.37;;;23.50;1.00;;;;;;6359555;22;20405;-80
2022/07/24 09:18:33;;;;;;;6.30;1.50;;;23.50;1.00;;;;;;6344824;22;20394;-83
2022/07/24 09:21:18;;;;;;;5.53;1.60;;;23.60;1.00;;;;;;6354011;22;20460;-77
2022/07/24 09:23:48;;;;;;;6.30;1.60;;;23.80;1.00;;;;;;6358124;22;21170;-77
2022/07/24 09:26:15;;;;;;;8.03;1.60;;;24.00;1.00;;;;;;6356397;22;21178;-76
2022/07/24 09:28:54;;;;;;;5.20;1.40;;;24.10;1.00;;;;;;6359993;22;20420;-78
2022/07/24 09:31:27;;;;;;;5.57;1.57;;;24.20;1.00;;;;;;6355847;22;20401;-77
2022/07/24 09:33:55;;;;;;;5.30;1.30;;;24.20;1.00;;;;;;6356613;22;20467;-79
2022/07/24 09:36:25;;;;;;;6.00;1.40;;;24.40;1.00;;;;;;6358501;22;20396;-79
2022/07/24 09:38:56;;;;;;;7.03;1.40;;;24.70;1.00;;;;;;6358292;22;20912;-80
2022/07/24 09:41:26;;;;;;;5.30;1.50;;;25.50;1.00;;;;;;6356764;22;20396;-81
2022/07/24 09:44:05;;;;;;;6.30;1.57;;;27.10;1.00;;;;;;6358099;22;20429;-78
2022/07/24 09:46:34;;;;;;;5.90;1.40;;;29.00;1.00;;;;;;6360848;22;20400;-83
2022/07/24 09:49:08;;;;;;;6.60;1.30;;;30.60;1.00;;;;;;6362592;22;20414;-81
2022/07/24 09:51:36;;;;;;;5.27;1.23;;;31.70;1.00;;;;;;6358342;22;20393;-84
2022/07/24 09:54:08;;;;;;;5.50;1.37;;;32.40;1.00;;;;;;6356725;22;20385;-81
2022/07/24 09:56:37;;;;;;;5.17;1.17;;;33.00;1.00;;;;;;6358720;22;20417;-80
2022/07/24 09:59:08;;;;;;;5.77;1.80;;;33.40;1.00;;;;;;6356769;22;20386;-82
2022/07/24 10:01:42;;;;;;;5.30;1.00;;;34.00;1.00;;;;;;6362602;22;20433;-83
2022/07/24 10:04:13;;;;;;;7.20;2.10;;;34.60;1.00;;;;;;6357373;22;20434;-79
2022/07/24 10:06:46;;;;;;;5.20;1.30;;;34.90;1.00;;;;;;6356711;22;20437;-76
2022/07/24 10:09:25;;;;;;;6.13;1.80;;;35.40;1.00;;;;;;6356649;22;20471;-80
2022/07/24 10:11:56;;;;;;;5.50;1.20;;;35.70;1.00;;;;;;6358956;22;20405;-83
2022/07/24 10:14:26;;;;;;;5.73;1.20;;;35.80;1.00;;;;;;6356534;22;20414;-82
2022/07/24 10:17:06;;;;;;;4.90;1.10;;;35.60;1.00;;;;;;6361358;22;20420;-83
2022/07/24 10:19:45;;;;;;;5.30;1.40;;;36.00;1.00;;;;;;6356600;22;21195;-83
2022/07/24 10:22:15;;;;;;;5.30;1.30;;;36.20;1.00;;;;;;6355433;22;20492;-80
2022/07/24 10:24:57;;;;;;;5.07;1.20;;;36.50;1.00;;;;;;6358330;22;21203;-78
2022/07/24 10:27:31;;;;;;;5.80;1.60;;;36.80;1.00;;;;;;6356589;22;20412;-82
2022/07/24 10:30:04;;;;;;;5.40;1.30;;;37.00;1.00;;;;;;6356030;22;20513;-81
2022/07/24 10:32:34;;;;;;;5.30;1.60;;;37.50;1.00;;;;;;6359432;22;20837;-80
2022/07/24 10:35:15;;;;;;;5.20;1.60;;;37.70;1.00;;;;;;6357342;22;20389;-79
2022/07/24 10:37:55;;;;;;;5.23;1.30;;;38.20;1.00;;;;;;6358144;22;20393;-79
2022/07/24 10:40:35;;;;;;;5.00;1.30;;;38.70;1.00;;;;;;6356296;22;20361;-81
2022/07/24 10:43:16;;;;;;;5.70;1.47;;;38.70;1.00;;;;;;6354245;22;20554;-78
2022/07/24 10:45:49;;;;;;;5.50;1.60;;;38.70;1.00;;;;;;6356336;22;20392;-84
2022/07/24 10:48:34;;;;;;;6.20;1.67;;;38.60;1.00;;;;;;6356862;22;20444;-84
2022/07/24 10:51:13;;;;;;;5.00;1.47;;;38.90;1.00;;;;;;6356638;22;20440;-81
2022/07/24 10:53:52;;;;;;;6.37;1.87;;;39.20;1.00;;;;;;6350908;22;20781;-78
2022/07/24 10:56:27;;;;;;;5.30;1.90;;;39.30;1.00;;;;;;6352305;22;20419;-78
2022/07/24 10:59:04;;;;;;;6.13;1.90;;;39.30;1.00;;;;;;6355139;22;20399;-78
2022/07/24 11:01:44;;;;;;;5.90;2.20;;;39.50;1.00;;;;;;6349300;22;20392;-80
2022/07/24 11:04:29;;;;;;;5.60;1.73;;;39.20;1.00;;;;;;6347149;22;20401;-80
2022/07/24 11:07:01;;;;;;;6.17;1.80;;;39.10;1.00;;;;;;6346278;22;20413;-80
2022/07/24 11:09:33;;;;;;;5.67;1.80;;;39.30;1.00;;;;;;6348593;22;21020;-80
2022/07/24 11:12:08;;;;;;;6.40;2.83;;;39.30;1.00;;;;;;6349096;22;20414;-78
2022/07/24 11:15:53;;;;;;;8.30;1.50;;;39.60;1.00;;;;;;6356141;22;20396;-84
2022/07/24 11:17:47;;;;;;;5.53;1.53;;;38.70;1.00;;;;;;6354354;22;20395;-78
2022/07/24 11:20:17;;;;;;;6.40;2.63;;;39.30;1.00;;;;;;6354662;22;20457;-81
2022/07/24 11:22:48;;;;;;;5.90;2.23;;;39.60;1.00;;;;;;6351425;22;20440;-81
2022/07/24 11:25:18;;;;;;;5.27;1.70;;;40.00;1.00;;;;;;6353801;22;20398;-81
2022/07/24 11:27:56;;;;;;;6.43;1.80;;;40.30;1.00;;;;;;6357664;22;20413;-81
2022/07/24 11:30:24;;;;;;;6.50;3.07;;;40.10;1.00;;;;;;6349139;22;20426;-80
2022/07/24 11:32:56;;;;;;;5.80;2.50;;;40.60;1.00;;;;;;6349592;22;20377;-80
2022/07/24 11:35:32;;;;;;;5.07;1.57;;;40.70;1.00;;;;;;6312397;22;20388;-78
2022/07/24 11:38:05;;;;;;;6.00;2.10;;;40.80;1.00;;;;;;6354919;22;20389;-79
2022/07/24 11:40:32;;;;;;;5.20;1.87;;;40.90;1.00;;;;;;6356094;22;20447;-81
2022/07/24 11:43:06;;;;;;;5.37;2.00;;;40.70;1.00;;;;;;6357364;22;20418;-84
2022/07/24 11:45:33;;;;;;;6.30;2.20;;;40.80;1.00;;;;;;6353756;22;20425;-80
2022/07/24 11:48:02;;;;;;;5.00;1.60;;;40.80;1.00;;;;;;6349362;22;20429;-80
2022/07/24 11:50:31;;;;;;;5.83;1.90;;;40.70;1.00;;;;;;6350404;22;20921;-79
2022/07/24 11:52:58;;;;;;;6.30;2.17;;;40.40;1.00;;;;;;6346611;22;20810;-80
2022/07/24 11:55:25;;;;;;;5.47;1.70;;;40.70;1.00;;;;;;6349706;22;20431;-80
2022/07/24 11:57:54;;;;;;;5.77;2.10;;;40.40;1.00;;;;;;6349995;22;20500;-80
2022/07/24 12:00:25;;;;;;;5.07;1.47;;;40.30;1.00;;;;;;6349146;22;20805;-80
2022/07/24 12:03:03;;;;;;;5.77;1.70;;;40.40;1.00;;;;;;6345528;22;20390;-81
2022/07/24 12:05:37;;;;;;;4.87;1.60;;;40.60;1.00;;;;;;6306349;22;20817;-79
2022/07/24 12:08:19;;;;;;;7.77;2.70;;;41.00;1.00;;;;;;6345774;22;20427;-79
2022/07/24 12:10:49;;;;;;;5.47;1.67;;;41.10;1.00;;;;;;6355711;22;20499;-79
2022/07/24 12:13:17;;;;;;;5.47;1.70;;;41.30;1.00;;;;;;6350006;22;20421;-80
2022/07/24 12:15:46;;;;;;;5.10;1.80;;;41.80;1.00;;;;;;6347036;22;20427;-79
2022/07/24 12:18:16;;;;;;;5.40;2.10;;;42.00;1.00;;;;;;6349942;22;20397;-78
2022/07/24 12:20:45;;;;;;;5.60;1.77;;;41.80;1.00;;;;;;6356468;22;20419;-80
2022/07/24 12:23:18;;;;;;;5.10;1.70;;;41.90;1.00;;;;;;6350939;22;20385;-83
2022/07/24 12:25:48;;;;;;;5.30;1.93;;;41.60;1.00;;;;;;6359242;22;20440;-83
2022/07/24 12:28:19;;;;;;;5.73;2.00;;;41.20;1.00;;;;;;6344093;22;20400;-80
2022/07/24 12:30:52;;;;;;;4.97;1.53;;;41.00;1.00;;;;;;6356313;22;20905;-79
2022/07/24 12:33:24;;;;;;;4.80;1.40;;;41.30;1.00;;;;;;6347677;22;20414;-78
2022/07/24 12:35:55;;;;;;;6.37;2.50;;;41.60;1.00;;;;;;6348790;22;20440;-79
2022/07/24 12:38:31;;;;;;;6.43;2.90;;;41.90;1.00;;;;;;6339768;22;20404;-84
2022/07/24 12:41:12;;;;;;;5.00;1.40;;;41.90;1.00;;;;;;6358022;22;20444;-80
2022/07/24 12:43:56;;;;;;;5.50;2.40;;;41.70;1.00;;;;;;6358951;22;20384;-82
2022/07/24 12:46:36;;;;;;;5.57;1.70;;;41.60;1.00;;;;;;6354065;22;20421;-78
2022/07/24 12:49:09;;;;;;;6.93;3.73;;;41.50;1.00;;;;;;6355436;22;21114;-81
2022/07/24 12:51:50;;;;;;;4.93;1.57;;;41.80;1.00;;;;;;6357127;22;20418;-81
2022/07/24 12:54:20;;;;;;;6.47;2.47;;;42.00;1.00;;;;;;6352884;22;20865;-81
2022/07/24 12:56:50;;;;;;;5.70;1.73;;;42.30;1.00;;;;;;6353625;22;20382;-79
2022/07/24 12:59:30;;;;;;;5.20;1.90;;;42.80;1.00;;;;;;6352409;22;20428;-77
2022/07/24 13:01:59;;;;;;;5.70;1.83;;;42.90;1.00;;;;;;6353340;22;20429;-78
2022/07/24 13:04:29;;;;;;;6.40;2.13;;;43.10;1.00;;;;;;6354446;22;20403;-81
2022/07/24 13:06:57;;;;;;;5.70;1.70;;;43.40;1.00;;;;;;6352760;22;20475;-78
2022/07/24 13:09:30;;;;;;;6.30;2.10;;;43.60;1.00;;;;;;6355117;22;20444;-84
2022/07/24 13:11:57;;;;;;;5.90;1.57;;;43.90;1.00;;;;;;6352541;22;20406;-79
2022/07/24 13:14:31;;;;;;;5.80;2.00;;;43.70;1.00;;;;;;6355041;22;20417;-80
2022/07/24 13:17:18;;;;;;;5.20;2.00;;;43.20;1.00;;;;;;6352587;22;20524;-80
2022/07/24 13:19:50;;;;;;;5.57;1.70;;;43.10;1.00;;;;;;6356588;22;20386;-84